Terminal Aerodrome Forecast
Issued by NWS

Home | Current Version | Previous Version | Text Only | Print | Product List | Glossary On
Versions: 1 2 3 4 5 6 7 8 9 10 11 12 13 14 15 16 17 18 19 20 21 22 23
000
FTUS43 KIND 302300
TAFLAF
TAF
KLAF 302320Z 3100/3124 28009KT P6SM FEW050
     FM310200 30002KT P6SM SKC
     FM310800 00000KT 3SM BR BCFG SKC
     FM311400 27006KT P6SM FEW050
      AMD LTD TO CLD VIS AND WIND 3101/3113=

USA.gov is the U.S. government's official web portal to all federal, state and local government web resources and services.